createdAt,value
2023-04-18T00:01:25.995Z,14.73
2023-04-18T00:03:53.774Z,18.52
2023-04-18T00:06:22.330Z,17.30
2023-04-18T00:08:49.425Z,15.52
2023-04-18T00:11:16.474Z,17.45
2023-04-18T00:13:44.509Z,19.98
2023-04-18T00:16:13.381Z,20.50
2023-04-18T00:18:40.769Z,19.67
2023-04-18T00:21:08.809Z,17.10
2023-04-18T00:23:36.196Z,19.20
2023-04-18T00:26:03.526Z,18.40
2023-04-18T00:28:30.450Z,20.88
2023-04-18T00:30:57.498Z,17.98
2023-04-18T00:33:24.462Z,19.38
2023-04-18T00:35:52.665Z,17.42
2023-04-18T00:38:19.535Z,17.98
2023-04-18T00:40:48.433Z,17.58
2023-04-18T00:43:17.023Z,20.73
2023-04-18T00:45:44.733Z,19.13
2023-04-18T00:48:11.966Z,20.98
2023-04-18T00:50:40.708Z,19.98
2023-04-18T00:53:10.621Z,18.17
2023-04-18T00:55:38.680Z,19.63
2023-04-18T00:58:06.454Z,21.55
2023-04-18T01:00:33.407Z,21.40
2023-04-18T01:03:01.083Z,18.77
2023-04-18T01:05:28.334Z,14.77
2023-04-18T01:08:01.132Z,19.48
2023-04-18T01:10:29.275Z,18.27
2023-04-18T01:13:12.480Z,17.98
2023-04-18T01:15:44.261Z,20.45
2023-04-18T01:18:13.325Z,17.50
2023-04-18T01:20:43.815Z,17.88
2023-04-18T01:23:10.859Z,16.83
2023-04-18T01:25:39.115Z,16.52
2023-04-18T01:28:06.648Z,14.85
2023-04-18T01:30:34.755Z,19.77
2023-04-18T01:33:03.136Z,17.58
2023-04-18T01:35:30.705Z,17.73
2023-04-18T01:37:57.740Z,16.75
2023-04-18T01:40:24.885Z,15.48
2023-04-18T01:42:53.502Z,15.93
2023-04-18T01:45:20.714Z,18.35
2023-04-18T01:47:47.703Z,19.58
2023-04-18T01:50:14.818Z,16.60
2023-04-18T01:52:43.207Z,16.98
2023-04-18T01:55:10.487Z,18.98
2023-04-18T01:57:37.438Z,17.17
2023-04-18T02:00:06.669Z,16.55
2023-04-18T02:02:43.146Z,14.70
2023-04-18T02:05:10.929Z,19.20
2023-04-18T02:07:41.151Z,17.70
2023-04-18T02:10:10.548Z,17.48
2023-04-18T02:12:37.697Z,18.73
2023-04-18T02:15:05.355Z,17.15
2023-04-18T02:17:36.394Z,16.77
2023-04-18T02:20:04.027Z,17.38
2023-04-18T02:22:32.073Z,16.15
2023-04-18T02:25:00.817Z,15.88
2023-04-18T02:27:28.010Z,15.80
2023-04-18T02:29:57.307Z,19.25
2023-04-18T02:32:24.898Z,15.82
2023-04-18T02:34:51.889Z,17.75
2023-04-18T02:37:19.081Z,14.77
2023-04-18T02:39:46.049Z,17.40
2023-04-18T02:42:12.922Z,18.58
2023-04-18T02:44:39.875Z,15.80
2023-04-18T02:47:07.095Z,17.73
2023-04-18T02:49:36.716Z,13.40
2023-04-18T02:52:03.942Z,18.08
2023-04-18T02:54:31.096Z,15.77
2023-04-18T02:57:06.260Z,13.75
2023-04-18T02:59:57.723Z,16.70
2023-04-18T03:02:51.253Z,16.27
2023-04-18T03:05:32.197Z,19.48
2023-04-18T03:08:02.271Z,23.73
2023-04-18T03:10:29.835Z,16.75
2023-04-18T03:12:56.800Z,17.15
2023-04-18T03:15:23.965Z,13.93
2023-04-18T03:17:51.387Z,14.43
2023-04-18T03:20:20.976Z,15.13
2023-04-18T03:22:48.031Z,15.25
2023-04-18T03:25:18.919Z,15.68
2023-04-18T03:27:51.393Z,18.48
2023-04-18T03:30:20.814Z,14.10
2023-04-18T03:32:56.325Z,16.42
2023-04-18T03:35:23.673Z,16.85
2023-04-18T03:37:50.978Z,17.80
2023-04-18T03:40:25.161Z,18.17
2023-04-18T03:42:55.053Z,19.40
2023-04-18T03:45:22.034Z,16.92
2023-04-18T03:47:50.017Z,19.83
2023-04-18T03:50:17.684Z,19.00
2023-04-18T03:52:46.277Z,18.35
2023-04-18T03:55:15.792Z,16.73
2023-04-18T03:57:42.875Z,18.05
2023-04-18T04:00:15.819Z,22.67
2023-04-18T04:02:42.910Z,18.73
2023-04-18T04:05:15.763Z,15.25
2023-04-18T04:07:43.377Z,17.80
2023-04-18T04:10:10.972Z,17.90
2023-04-18T04:12:37.919Z,21.98
2023-04-18T04:15:05.605Z,17.05
2023-04-18T04:17:33.242Z,19.52
2023-04-18T04:20:00.244Z,16.02
2023-04-18T04:22:28.484Z,20.08
2023-04-18T04:24:57.862Z,17.95
2023-04-18T04:27:31.244Z,16.38
2023-04-18T04:29:58.196Z,23.48
2023-04-18T04:32:25.549Z,16.77
2023-04-18T04:34:53.712Z,18.17
2023-04-18T04:37:21.209Z,20.10
2023-04-18T04:40:00.716Z,17.50
2023-04-18T04:42:41.239Z,15.27
2023-04-18T04:45:15.386Z,17.90
2023-04-18T04:47:42.355Z,23.05
2023-04-18T04:50:14.841Z,18.02
2023-04-18T04:52:42.838Z,18.17
2023-04-18T04:55:10.163Z,23.60
2023-04-18T04:57:38.011Z,22.98
2023-04-18T05:00:21.043Z,21.85
2023-04-18T05:02:49.460Z,18.67
2023-04-18T05:05:16.727Z,26.23
2023-04-18T05:07:43.680Z,19.55
2023-04-18T05:10:11.026Z,18.67
2023-04-18T05:12:38.000Z,25.90
2023-04-18T05:15:05.567Z,21.02
2023-04-18T05:17:32.659Z,21.52
2023-04-18T05:19:59.586Z,23.98
2023-04-18T05:22:26.748Z,28.65
2023-04-18T05:24:53.772Z,21.42
2023-04-18T05:27:21.815Z,19.25
2023-04-18T05:29:50.344Z,20.23
2023-04-18T05:32:17.510Z,20.30
2023-04-18T05:34:44.557Z,20.00
2023-04-18T05:37:11.658Z,20.75
2023-04-18T05:39:38.834Z,25.23
2023-04-18T05:42:05.961Z,21.30
2023-04-18T05:44:33.094Z,21.73
2023-04-18T05:47:00.098Z,25.63
2023-04-18T05:49:27.081Z,34.70
2023-04-18T05:51:54.020Z,22.50
2023-04-18T05:54:25.234Z,18.77
2023-04-18T05:56:52.352Z,19.45
2023-04-18T05:59:20.712Z,26.83
2023-04-18T06:01:47.775Z,16.85
2023-04-18T06:04:16.581Z,20.80
2023-04-18T06:06:43.816Z,20.30
2023-04-18T06:09:11.294Z,15.93
2023-04-18T06:11:38.614Z,22.00
2023-04-18T06:14:05.738Z,18.45
2023-04-18T06:16:32.844Z,22.70
2023-04-18T06:19:01.344Z,29.63
2023-04-18T06:21:28.533Z,36.50
2023-04-18T06:23:55.739Z,24.65
2023-04-18T06:26:22.769Z,23.73
2023-04-18T06:28:49.809Z,22.80
2023-04-18T06:31:16.945Z,26.05
2023-04-18T06:33:44.081Z,22.90
2023-04-18T06:36:11.118Z,25.38
2023-04-18T06:38:38.166Z,20.10
2023-04-18T06:41:05.236Z,21.00
2023-04-18T06:43:32.229Z,23.35
2023-04-18T06:45:59.710Z,18.63
2023-04-18T06:48:26.756Z,24.75
2023-04-18T06:50:53.744Z,21.05
2023-04-18T06:53:21.106Z,16.45
2023-04-18T06:55:48.353Z,21.15
2023-04-18T06:58:16.926Z,21.25
2023-04-18T07:00:44.053Z,17.85
2023-04-18T07:03:13.689Z,19.05
2023-04-18T07:05:41.333Z,21.27
2023-04-18T07:08:14.082Z,20.15
2023-04-18T07:10:41.477Z,19.20
2023-04-18T07:13:08.646Z,17.10
2023-04-18T07:15:36.296Z,16.02
2023-04-18T07:18:03.709Z,20.08
2023-04-18T07:20:31.395Z,15.30
2023-04-18T07:22:58.405Z,19.80
2023-04-18T07:25:25.755Z,17.33
2023-04-18T07:27:52.853Z,17.98
2023-04-18T07:30:19.926Z,13.65
2023-04-18T07:32:56.049Z,18.63
2023-04-18T07:35:26.034Z,13.13
2023-04-18T07:37:54.243Z,16.42
2023-04-18T07:40:21.774Z,13.07
2023-04-18T07:42:48.906Z,14.60
2023-04-18T07:45:16.229Z,13.63
2023-04-18T07:47:43.366Z,14.90
2023-04-18T07:50:10.865Z,14.02
2023-04-18T07:52:39.314Z,13.45
2023-04-18T07:55:07.169Z,12.88
2023-04-18T07:57:34.405Z,14.27
2023-04-18T08:00:01.421Z,13.07
2023-04-18T08:02:39.930Z,12.45
2023-04-18T08:05:12.670Z,13.23
2023-04-18T08:07:39.759Z,13.60
2023-04-18T08:10:09.754Z,13.77
2023-04-18T08:12:36.896Z,14.88
2023-04-18T08:15:04.632Z,13.23
2023-04-18T08:17:33.369Z,13.40
2023-04-18T08:20:05.164Z,16.13
2023-04-18T08:22:32.162Z,15.93
2023-04-18T08:25:04.980Z,15.55
2023-04-18T08:27:32.750Z,12.80
2023-04-18T08:30:00.817Z,13.23
2023-04-18T08:32:27.973Z,15.57
2023-04-18T08:34:58.370Z,21.17
2023-04-18T08:37:25.620Z,13.70
2023-04-18T08:39:52.669Z,24.77
2023-04-18T08:42:19.927Z,15.90
2023-04-18T08:44:47.334Z,14.55
2023-04-18T08:47:16.192Z,17.50
2023-04-18T08:49:48.438Z,14.98
2023-04-18T08:52:24.139Z,20.00
2023-04-18T08:54:51.205Z,18.25
2023-04-18T08:57:27.443Z,14.88
2023-04-18T08:59:55.550Z,12.90
2023-04-18T09:02:35.294Z,13.43
2023-04-18T09:05:11.639Z,13.98
2023-04-18T09:07:38.837Z,15.13
2023-04-18T09:10:06.308Z,21.40
2023-04-18T09:12:34.627Z,16.98
2023-04-18T09:15:15.635Z,17.60
2023-04-18T09:17:51.064Z,15.93
2023-04-18T09:20:42.429Z,17.25
2023-04-18T09:23:11.721Z,14.98
2023-04-18T09:25:45.130Z,18.75
2023-04-18T09:28:30.724Z,16.63
2023-04-18T09:31:09.476Z,22.00
2023-04-18T09:33:37.157Z,18.27
2023-04-18T09:36:24.799Z,16.40
2023-04-18T09:38:56.311Z,15.98
2023-04-18T09:41:24.443Z,21.50
2023-04-18T09:44:12.372Z,18.50
2023-04-18T09:46:41.493Z,17.13
2023-04-18T09:49:10.421Z,16.98
2023-04-18T09:51:40.407Z,19.60
2023-04-18T09:54:09.731Z,15.43
2023-04-18T09:56:39.312Z,15.68
2023-04-18T09:59:10.623Z,15.93
2023-04-18T10:01:40.186Z,18.30
2023-04-18T10:04:08.238Z,15.70
2023-04-18T10:06:42.102Z,18.75
2023-04-18T10:09:10.334Z,17.30
2023-04-18T10:11:37.592Z,21.85
2023-04-18T10:14:12.904Z,22.38
2023-04-18T10:16:41.396Z,19.40
2023-04-18T10:19:26.197Z,18.00
2023-04-18T10:21:57.121Z,17.80
2023-04-18T10:24:59.515Z,26.85
2023-04-18T10:27:48.769Z,16.45
2023-04-18T10:30:16.943Z,16.92
2023-04-18T10:32:45.973Z,18.17
2023-04-18T10:35:13.239Z,19.42
2023-04-18T10:37:52.702Z,18.50
2023-04-18T10:40:46.018Z,18.17
2023-04-18T10:43:13.503Z,21.40
2023-04-18T10:45:43.493Z,16.25
2023-04-18T10:48:32.919Z,21.48
2023-04-18T10:51:20.734Z,15.57
2023-04-18T10:53:54.278Z,18.50
2023-04-18T10:56:24.424Z,16.25
2023-04-18T10:58:55.622Z,21.13
2023-04-18T11:01:32.464Z,19.13
2023-04-18T11:04:00.776Z,19.33
2023-04-18T11:06:28.626Z,15.93
2023-04-18T11:09:13.860Z,17.13
2023-04-18T11:11:41.878Z,18.20
2023-04-18T11:14:08.836Z,15.65
2023-04-18T11:16:36.149Z,18.52
2023-04-18T11:19:25.843Z,18.65
2023-04-18T11:21:53.067Z,21.48
2023-04-18T11:24:24.333Z,16.90
2023-04-18T11:26:56.180Z,19.63
2023-04-18T11:29:23.855Z,17.27
2023-04-18T11:31:55.287Z,15.50
2023-04-18T11:34:30.545Z,14.35
2023-04-18T11:36:59.627Z,13.25
2023-04-18T11:39:29.293Z,17.23
2023-04-18T11:41:57.718Z,14.23
2023-04-18T11:44:25.333Z,17.95
2023-04-18T11:46:55.917Z,16.67
2023-04-18T11:49:31.817Z,21.92
2023-04-18T11:52:00.050Z,16.48
2023-04-18T11:54:44.510Z,17.63
2023-04-18T11:57:26.655Z,17.00
2023-04-18T11:59:55.009Z,17.30
2023-04-18T12:02:26.772Z,18.00
2023-04-18T12:04:59.200Z,14.27
2023-04-18T12:07:37.245Z,17.55
2023-04-18T12:10:10.187Z,16.42
2023-04-18T12:12:37.190Z,15.45
2023-04-18T12:15:08.498Z,19.15
2023-04-18T12:17:37.551Z,16.10
2023-04-18T12:20:09.713Z,16.20
2023-04-18T12:22:42.074Z,15.85
2023-04-18T12:25:26.203Z,14.90
2023-04-18T12:27:58.369Z,14.90
2023-04-18T12:30:31.230Z,15.90
2023-04-18T12:33:04.118Z,17.02
2023-04-18T12:35:31.988Z,19.33
2023-04-18T12:38:01.538Z,17.85
2023-04-18T12:40:30.639Z,17.65
2023-04-18T12:42:57.658Z,15.55
2023-04-18T12:45:25.013Z,17.65
2023-04-18T12:47:52.834Z,15.55
2023-04-18T12:50:25.136Z,19.33
2023-04-18T12:52:54.248Z,17.17
2023-04-18T12:55:22.953Z,18.20
2023-04-18T12:57:52.433Z,19.63
2023-04-18T13:00:19.494Z,17.48
2023-04-18T13:02:46.597Z,15.57
2023-04-18T13:05:15.415Z,16.08
2023-04-18T13:07:43.392Z,16.58
2023-04-18T13:10:12.958Z,20.50
2023-04-18T13:12:41.262Z,16.65
2023-04-18T13:15:11.961Z,16.65
2023-04-18T13:17:39.939Z,16.67
2023-04-18T13:20:10.863Z,14.35
2023-04-18T13:22:38.861Z,14.75
2023-04-18T13:25:08.270Z,20.20
2023-04-18T13:27:35.221Z,13.70
2023-04-18T13:30:02.656Z,17.75
2023-04-18T13:32:30.549Z,15.50
2023-04-18T13:34:57.619Z,17.15
2023-04-18T13:37:24.645Z,15.15
2023-04-18T13:39:51.683Z,16.13
2023-04-18T13:42:19.512Z,13.80
2023-04-18T13:44:47.649Z,15.57
2023-04-18T13:47:14.696Z,20.45
2023-04-18T13:49:41.856Z,17.90
2023-04-18T13:52:09.226Z,19.80
2023-04-18T13:54:37.715Z,15.32
2023-04-18T13:57:11.705Z,12.68
2023-04-18T13:59:42.614Z,14.07
2023-04-18T14:02:10.194Z,14.90
2023-04-18T14:04:38.159Z,15.30
2023-04-18T14:07:06.426Z,14.13
2023-04-18T14:09:33.730Z,17.45
2023-04-18T14:12:00.679Z,16.27
2023-04-18T14:14:29.380Z,15.00
2023-04-18T14:16:56.641Z,13.18
2023-04-18T14:19:24.077Z,15.70
2023-04-18T14:21:51.131Z,18.13
2023-04-18T14:24:18.218Z,17.80
2023-04-18T14:26:45.284Z,16.13
2023-04-18T14:29:12.630Z,16.00
2023-04-18T14:31:39.994Z,17.40
2023-04-18T14:34:08.521Z,16.75
2023-04-18T14:36:36.025Z,12.95
2023-04-18T14:39:03.629Z,13.05
2023-04-18T14:41:30.576Z,14.77
2023-04-18T14:43:57.653Z,13.95
2023-04-18T14:46:24.660Z,16.33
2023-04-18T14:48:51.586Z,14.65
2023-04-18T14:51:21.434Z,14.10
2023-04-18T14:53:49.570Z,16.25
2023-04-18T14:56:21.025Z,15.15
2023-04-18T14:58:48.332Z,16.00
2023-04-18T15:01:15.712Z,17.55
2023-04-18T15:03:42.880Z,14.88
2023-04-18T15:06:10.025Z,14.98
2023-04-18T15:08:37.205Z,15.98
2023-04-18T15:11:08.277Z,13.18
2023-04-18T15:13:35.802Z,21.73
2023-04-18T15:16:03.556Z,15.00
2023-04-18T15:18:30.806Z,18.63
2023-04-18T15:20:59.975Z,14.57
2023-04-18T15:23:27.675Z,18.10
2023-04-18T15:25:54.856Z,14.75
2023-04-18T15:28:21.982Z,13.93
2023-04-18T15:30:48.923Z,14.23
2023-04-18T15:33:17.538Z,16.38
2023-04-18T15:35:45.236Z,13.73
2023-04-18T15:38:12.320Z,13.35
2023-04-18T15:40:39.420Z,16.63
2023-04-18T15:43:06.590Z,16.05
2023-04-18T15:45:33.610Z,14.20
2023-04-18T15:48:00.737Z,15.43
2023-04-18T15:50:27.885Z,14.15
2023-04-18T15:52:56.455Z,21.08
2023-04-18T15:55:24.708Z,16.30
2023-04-18T15:57:51.794Z,14.77
2023-04-18T16:00:19.843Z,16.33
2023-04-18T16:02:47.397Z,12.32
2023-04-18T16:05:15.487Z,12.77
2023-04-18T16:07:42.831Z,13.10
2023-04-18T16:10:11.293Z,15.40
2023-04-18T16:12:39.757Z,11.85
2023-04-18T16:15:08.765Z,12.88
2023-04-18T16:17:37.751Z,14.38
2023-04-18T16:20:09.696Z,16.25
2023-04-18T16:22:37.924Z,14.05
2023-04-18T16:25:06.681Z,17.67
2023-04-18T16:27:33.684Z,16.58
2023-04-18T16:30:01.268Z,15.30
2023-04-18T16:32:30.645Z,12.82
2023-04-18T16:34:57.977Z,14.82
2023-04-18T16:37:24.968Z,15.60
2023-04-18T16:39:51.894Z,14.27
2023-04-18T16:42:19.071Z,15.05
2023-04-18T16:44:47.409Z,12.55
2023-04-18T16:47:14.454Z,14.70
2023-04-18T16:49:41.754Z,11.85
2023-04-18T16:52:08.686Z,12.95
2023-04-18T16:54:36.464Z,11.40
2023-04-18T16:57:05.445Z,12.77
2023-04-18T16:59:32.555Z,14.30
2023-04-18T17:01:59.868Z,15.23
2023-04-18T17:04:27.400Z,13.73
2023-04-18T17:06:54.736Z,14.85
2023-04-18T17:09:21.958Z,13.05
2023-04-18T17:11:49.317Z,18.50
2023-04-18T17:14:17.558Z,13.48
2023-04-18T17:16:44.904Z,16.05
2023-04-18T17:19:12.295Z,13.25
2023-04-18T17:21:39.419Z,12.27
2023-04-18T17:24:07.206Z,12.23
2023-04-18T17:26:35.854Z,11.45
2023-04-18T17:29:06.457Z,13.75
2023-04-18T17:31:34.411Z,13.55
2023-04-18T17:34:01.659Z,12.30
2023-04-18T17:36:28.765Z,14.95
2023-04-18T17:38:56.481Z,13.13
2023-04-18T17:41:23.438Z,17.42
2023-04-18T17:43:53.484Z,13.10
2023-04-18T17:46:21.189Z,12.60
2023-04-18T17:48:49.466Z,14.75
2023-04-18T17:51:16.651Z,12.52
2023-04-18T17:53:43.760Z,13.40
2023-04-18T17:56:10.941Z,13.50
2023-04-18T17:58:37.947Z,14.70
2023-04-18T18:01:17.403Z,21.42
2023-04-18T18:03:45.109Z,12.68
2023-04-18T18:06:13.385Z,12.90
2023-04-18T18:08:42.703Z,9.95
2023-04-18T18:11:10.950Z,12.45
2023-04-18T18:13:39.305Z,11.55
2023-04-18T18:16:07.435Z,10.85
2023-04-18T18:18:34.919Z,12.45
2023-04-18T18:21:02.111Z,12.15
2023-04-18T18:23:29.346Z,14.88
2023-04-18T18:25:57.079Z,12.85
2023-04-18T18:28:24.211Z,15.88
2023-04-18T18:30:51.301Z,13.55
2023-04-18T18:33:19.115Z,12.70
2023-04-18T18:35:47.211Z,13.25
2023-04-18T18:38:14.411Z,11.52
2023-04-18T18:40:41.690Z,11.73
2023-04-18T18:43:09.012Z,18.27
2023-04-18T18:45:36.020Z,16.40
2023-04-18T18:48:04.677Z,13.80
2023-04-18T18:50:32.066Z,13.95
2023-04-18T18:53:01.910Z,11.43
2023-04-18T18:55:30.047Z,11.77
2023-04-18T18:57:57.175Z,14.00
2023-04-18T19:00:24.903Z,13.43
2023-04-18T19:02:52.283Z,12.90
2023-04-18T19:05:19.636Z,12.85
2023-04-18T19:07:46.786Z,12.98
2023-04-18T19:10:13.929Z,12.73
2023-04-18T19:12:40.903Z,12.60
2023-04-18T19:15:08.546Z,12.85
2023-04-18T19:17:35.988Z,15.27
2023-04-18T19:20:03.450Z,11.85
2023-04-18T19:22:31.257Z,13.02
2023-04-18T19:25:00.484Z,12.98
2023-04-18T19:27:27.465Z,11.57
2023-04-18T19:29:54.414Z,11.60
2023-04-18T19:32:21.993Z,10.82
2023-04-18T19:34:49.096Z,10.85
2023-04-18T19:37:16.292Z,10.65
2023-04-18T19:39:43.310Z,14.15
2023-04-18T19:42:10.472Z,22.35
2023-04-18T19:44:37.436Z,11.05
2023-04-18T19:47:04.680Z,11.02
2023-04-18T19:49:31.688Z,10.68
2023-04-18T19:51:58.796Z,11.55
2023-04-18T19:54:26.016Z,10.30
2023-04-18T19:56:53.040Z,12.05
2023-04-18T19:59:20.042Z,9.82
2023-04-18T20:01:47.698Z,10.80
2023-04-18T20:04:14.903Z,11.05
2023-04-18T20:06:42.773Z,13.40
2023-04-18T20:09:15.421Z,10.32
2023-04-18T20:11:43.564Z,12.18
2023-04-18T20:14:11.035Z,30.95
2023-04-18T20:16:39.190Z,12.88
2023-04-18T20:19:06.228Z,11.70
2023-04-18T20:21:33.205Z,16.73
2023-04-18T20:24:00.290Z,12.85
2023-04-18T20:26:27.349Z,13.27
2023-04-18T20:28:54.531Z,15.00
2023-04-18T20:31:21.865Z,14.70
2023-04-18T20:33:48.874Z,11.23
2023-04-18T20:36:17.841Z,11.63
2023-04-18T20:38:44.958Z,11.85
2023-04-18T20:41:18.265Z,10.75
2023-04-18T20:43:46.973Z,11.82
2023-04-18T20:46:14.368Z,11.15
2023-04-18T20:48:41.770Z,11.05
2023-04-18T20:51:09.223Z,12.50
2023-04-18T20:53:36.270Z,11.05
2023-04-18T20:56:03.314Z,11.60
2023-04-18T20:58:30.402Z,11.45
2023-04-18T21:00:57.729Z,11.73
2023-04-18T21:03:25.269Z,11.55
2023-04-18T21:05:52.858Z,12.30
2023-04-18T21:08:19.950Z,11.48
2023-04-18T21:10:46.950Z,9.85
2023-04-18T21:13:14.160Z,13.10
2023-04-18T21:15:42.350Z,10.77
2023-04-18T21:18:09.541Z,10.90
2023-04-18T21:20:37.025Z,11.75
2023-04-18T21:23:04.072Z,10.35
2023-04-18T21:25:31.371Z,11.60
2023-04-18T21:27:58.690Z,16.88
2023-04-18T21:30:25.962Z,14.35
2023-04-18T21:32:53.080Z,11.85
2023-04-18T21:35:22.019Z,12.05
2023-04-18T21:37:51.371Z,11.07
2023-04-18T21:40:18.493Z,15.70
2023-04-18T21:42:46.186Z,11.85
2023-04-18T21:45:13.888Z,11.63
2023-04-18T21:47:41.102Z,14.38
2023-04-18T21:50:09.461Z,12.38
2023-04-18T21:52:37.534Z,13.77
2023-04-18T21:55:05.147Z,13.95
2023-04-18T21:57:32.349Z,11.50
2023-04-18T21:59:59.329Z,10.10
2023-04-18T22:02:27.274Z,12.55
2023-04-18T22:04:54.681Z,11.65
2023-04-18T22:07:21.631Z,11.52
2023-04-18T22:09:48.839Z,11.43
2023-04-18T22:12:15.953Z,13.55
2023-04-18T22:14:48.367Z,12.13
2023-04-18T22:17:15.577Z,13.25
2023-04-18T22:19:44.582Z,11.10
2023-04-18T22:22:11.779Z,16.83
2023-04-18T22:24:38.775Z,11.70
2023-04-18T22:27:06.003Z,11.75
2023-04-18T22:29:33.245Z,13.88
2023-04-18T22:32:00.336Z,13.70
2023-04-18T22:34:27.362Z,12.45
2023-04-18T22:36:54.544Z,14.52
2023-04-18T22:39:21.522Z,11.85
2023-04-18T22:41:48.463Z,14.73
2023-04-18T22:44:15.764Z,11.48
2023-04-18T22:46:43.158Z,19.55
2023-04-18T22:49:10.259Z,16.48
2023-04-18T22:51:38.342Z,16.25
2023-04-18T22:54:05.593Z,12.93
2023-04-18T22:56:32.555Z,12.98
2023-04-18T22:58:59.802Z,12.73
2023-04-18T23:01:26.834Z,11.77
2023-04-18T23:03:53.919Z,13.02
2023-04-18T23:06:21.139Z,11.93
2023-04-18T23:08:48.226Z,13.27
2023-04-18T23:11:15.918Z,10.13
2023-04-18T23:13:42.924Z,12.07
2023-04-18T23:16:09.865Z,12.20
2023-04-18T23:18:36.936Z,12.23
2023-04-18T23:21:04.199Z,12.57
2023-04-18T23:23:31.292Z,11.05
2023-04-18T23:25:58.388Z,14.20
2023-04-18T23:28:25.680Z,11.82
2023-04-18T23:30:52.819Z,11.48
2023-04-18T23:33:19.818Z,11.98
2023-04-18T23:35:46.695Z,12.82
2023-04-18T23:38:13.650Z,11.25
2023-04-18T23:40:41.039Z,11.70
2023-04-18T23:43:08.129Z,11.50
2023-04-18T23:45:36.082Z,12.02
2023-04-18T23:48:03.340Z,11.68
2023-04-18T23:50:30.505Z,13.27
2023-04-18T23:52:57.633Z,15.05
2023-04-18T23:55:24.846Z,12.25
2023-04-18T23:57:51.927Z,9.18
